KMHR/MHR METAR and TAF weather

Enter ICAO airport designator
Station Type Date Time Source
KMHR METAR 2020/01/20 21:45 UTC NOAA

KMHR 202145Z 00000KT 5SM BR OVC100 10/07 A3001


Station Type Date Time Source
KMHR Decoded METAR 2020/01/20 21:45 UTC NOAA

Sacramento, Sacramento Mather Airport, CA, United States (KMHR) 38-33N 121-18W
Jan 20, 2020 - 04:45 PM EST / 2020.01.20 2145 UTC
Wind: Calm:0
Visibility: 5 mile(s):0
Sky conditions: overcast
Weather: mist
Temperature: 50 F (10 C)
Dew Point: 44 F (7 C)
Relative Humidity: 81%
Pressure (altimeter): 30.01 in. Hg (1016 hPa)
ob: KMHR 202145Z 00000KT 5SM BR OVC100 10/07 A3001
cycle: 22

Station Type Date Time Source
KMHR TAF 2020/01/20 18:40 UTC NOAA

TAF KMHR 201738Z 2018/2118 VRB03KT 2SM BR OVC004
FM202000 13004KT 6SM HZ OVC100
FM210000 14005KT P6SM OVC250
FM210600 15006KT 4SM BR OVC050
FM211600 14009KT 4SM -RA OVC015

Example: see airport list